createdAt,value
2022-10-20T00:01:19.566Z,95.20
2022-10-20T00:03:49.659Z,94.80
2022-10-20T00:06:19.352Z,94.20
2022-10-20T00:08:47.750Z,93.80
2022-10-20T00:11:17.990Z,93.80
2022-10-20T00:13:48.186Z,93.30
2022-10-20T00:16:17.217Z,93.30
2022-10-20T00:18:45.905Z,91.20
2022-10-20T00:21:19.324Z,92.20
2022-10-20T00:23:47.480Z,92.60
2022-10-20T00:26:17.767Z,92.10
2022-10-20T00:28:46.216Z,90.70
2022-10-20T00:31:15.253Z,91.10
2022-10-20T00:33:43.509Z,91.50
2022-10-20T00:36:16.185Z,91.80
2022-10-20T00:38:44.400Z,92.00
2022-10-20T00:41:14.816Z,91.60
2022-10-20T00:43:48.899Z,91.50
2022-10-20T00:46:23.247Z,91.00
2022-10-20T00:48:56.375Z,90.20
2022-10-20T00:51:28.041Z,90.80
2022-10-20T00:54:04.418Z,90.90
2022-10-20T00:56:32.922Z,91.20
2022-10-20T00:59:02.849Z,91.90
2022-10-20T01:01:31.223Z,92.60
2022-10-20T01:03:59.580Z,92.10
2022-10-20T01:06:29.370Z,92.20
2022-10-20T01:08:57.621Z,92.20
2022-10-20T01:11:37.216Z,92.20
2022-10-20T01:14:39.884Z,92.40
2022-10-20T01:17:17.105Z,92.70
2022-10-20T01:20:27.403Z,93.20
2022-10-20T01:23:26.669Z,95.00
2022-10-20T01:26:21.074Z,95.70
2022-10-20T01:28:56.762Z,96.00
2022-10-20T01:31:30.994Z,95.70
2022-10-20T01:34:07.426Z,95.40
2022-10-20T01:36:40.451Z,95.40
2022-10-20T01:39:15.056Z,95.40
2022-10-20T01:41:48.397Z,95.10
2022-10-20T01:44:19.782Z,95.10
2022-10-20T01:46:49.083Z,94.90
2022-10-20T01:49:18.430Z,94.00
2022-10-20T01:51:46.435Z,94.00
2022-10-20T01:54:22.985Z,94.50
2022-10-20T01:57:09.031Z,94.90
2022-10-20T01:59:49.381Z,95.30
2022-10-20T02:02:34.041Z,95.90
2022-10-20T02:05:17.262Z,95.90
2022-10-20T02:07:45.397Z,95.60
2022-10-20T02:10:18.672Z,95.20
2022-10-20T02:12:53.257Z,95.10
2022-10-20T02:15:26.336Z,95.10
2022-10-20T02:17:59.679Z,94.70
2022-10-20T02:20:28.712Z,94.40
2022-10-20T02:22:59.518Z,94.60
2022-10-20T02:25:29.101Z,94.10
2022-10-20T02:30:31.119Z,93.90
2022-10-20T02:33:00.362Z,93.80
2022-10-20T02:35:32.071Z,94.00
2022-10-20T02:38:01.137Z,93.70
2022-10-20T02:40:29.551Z,93.50
2022-10-20T02:42:57.524Z,93.60
2022-10-20T02:45:25.518Z,93.60
2022-10-20T02:47:54.918Z,93.10
2022-10-20T02:50:22.894Z,93.20
2022-10-20T02:52:50.884Z,93.30
2022-10-20T02:57:53.980Z,93.00
2022-10-20T03:00:22.669Z,92.20
2022-10-20T03:02:51.405Z,92.60
2022-10-20T03:05:27.357Z,92.80
2022-10-20T03:07:55.831Z,92.90
2022-10-20T03:10:23.927Z,93.30
2022-10-20T03:12:51.931Z,93.30
2022-10-20T03:15:20.008Z,93.20
2022-10-20T03:17:47.990Z,92.70
2022-10-20T03:20:16.003Z,92.70
2022-10-20T03:22:45.424Z,92.90
2022-10-20T03:25:14.018Z,93.60
2022-10-20T03:27:42.042Z,94.10
2022-10-20T03:30:10.663Z,94.20
2022-10-20T03:32:38.773Z,94.10
2022-10-20T03:35:07.886Z,94.50
2022-10-20T03:37:35.902Z,94.30
2022-10-20T03:40:08.109Z,93.90
2022-10-20T03:42:36.513Z,93.60
2022-10-20T03:45:05.506Z,93.70
2022-10-20T03:47:33.540Z,93.40
2022-10-20T03:50:01.734Z,93.30
2022-10-20T03:52:29.798Z,94.40
2022-10-20T03:54:58.033Z,94.60
2022-10-20T03:57:27.531Z,94.50
2022-10-20T03:59:55.542Z,94.80
2022-10-20T04:02:35.682Z,95.00
2022-10-20T04:05:04.443Z,95.20
2022-10-20T04:07:32.673Z,95.10
2022-10-20T04:10:02.172Z,95.80
2022-10-20T04:12:32.051Z,96.20
2022-10-20T04:15:00.091Z,96.30
2022-10-20T04:17:28.393Z,96.20
2022-10-20T04:19:56.455Z,95.90
2022-10-20T04:22:24.470Z,96.20
2022-10-20T04:24:52.480Z,96.30
2022-10-20T04:27:20.489Z,97.70
2022-10-20T04:29:49.990Z,97.70
2022-10-20T04:32:20.750Z,97.70
2022-10-20T04:34:48.734Z,97.30
2022-10-20T04:37:17.037Z,96.90
2022-10-20T04:39:45.327Z,96.60
2022-10-20T04:42:13.679Z,96.00
2022-10-20T04:44:41.671Z,98.20
2022-10-20T04:47:11.213Z,97.10
2022-10-20T04:49:39.477Z,96.10
2022-10-20T04:52:07.599Z,96.00
2022-10-20T04:54:35.829Z,96.20
2022-10-20T04:57:08.046Z,95.80
2022-10-20T04:59:36.054Z,95.30
2022-10-20T05:02:04.152Z,95.20
2022-10-20T05:04:33.586Z,95.30
2022-10-20T05:07:01.598Z,95.20
2022-10-20T05:09:29.725Z,95.30
2022-10-20T05:11:57.877Z,95.10
2022-10-20T05:14:26.216Z,95.20
2022-10-20T05:16:54.324Z,95.10
2022-10-20T05:19:22.444Z,95.20
2022-10-20T05:21:53.100Z,95.60
2022-10-20T05:24:22.798Z,95.80
2022-10-20T05:26:51.665Z,95.90
2022-10-20T05:29:19.628Z,95.90
2022-10-20T05:31:47.633Z,95.90
2022-10-20T05:34:15.626Z,96.00
2022-10-20T05:36:43.628Z,96.40
2022-10-20T05:39:13.266Z,96.60
2022-10-20T05:41:41.280Z,96.80
2022-10-20T05:44:09.942Z,97.10
2022-10-20T05:46:41.309Z,97.00
2022-10-20T05:49:15.558Z,97.30
2022-10-20T05:51:45.146Z,97.50
2022-10-20T05:54:15.237Z,97.80
2022-10-20T05:56:43.374Z,98.10
2022-10-20T05:59:11.954Z,98.30
2022-10-20T06:01:48.131Z,98.40
2022-10-20T06:04:18.127Z,98.60
2022-10-20T06:06:46.173Z,98.80
2022-10-20T06:09:15.755Z,99.10
2022-10-20T06:11:43.754Z,99.10
2022-10-20T06:14:13.191Z,99.10
2022-10-20T06:16:41.570Z,99.00
2022-10-20T06:19:09.591Z,98.80
2022-10-20T06:21:38.987Z,98.40
2022-10-20T06:24:07.945Z,98.50
2022-10-20T06:26:38.506Z,98.70
2022-10-20T06:29:08.235Z,98.60
2022-10-20T06:31:39.003Z,98.40
2022-10-20T06:34:15.429Z,99.30
2022-10-20T06:36:44.084Z,99.70
2022-10-20T06:39:14.233Z,99.90
2022-10-20T06:41:44.270Z,85.80
2022-10-20T06:44:12.970Z,18.80
2022-10-20T06:46:40.994Z,1.00
2022-10-20T06:49:11.596Z,1.00
2022-10-20T06:51:43.005Z,1.00
2022-10-20T06:54:11.042Z,99.90
2022-10-20T06:56:41.544Z,99.90
2022-10-20T06:59:10.903Z,99.90
2022-10-20T07:01:40.550Z,15.80
2022-10-20T07:04:11.724Z,1.00
2022-10-20T07:06:42.062Z,99.90
2022-10-20T07:09:13.984Z,40.90
2022-10-20T07:11:42.597Z,1.00
2022-10-20T07:14:14.118Z,99.90
2022-10-20T07:16:42.941Z,1.00
2022-10-20T07:19:10.962Z,10.00
2022-10-20T07:21:46.014Z,1.00
2022-10-20T07:24:15.560Z,99.90
2022-10-20T07:26:43.662Z,99.90
2022-10-20T07:29:14.861Z,99.90
2022-10-20T07:31:45.306Z,99.90
2022-10-20T07:34:30.446Z,99.90
2022-10-20T07:36:58.959Z,1.00
2022-10-20T07:39:28.969Z,1.00
2022-10-20T07:41:57.012Z,99.90
2022-10-20T07:44:26.390Z,99.90
2022-10-20T07:46:54.407Z,99.90
2022-10-20T07:49:43.505Z,99.90
2022-10-20T07:52:10.374Z,39.10
2022-10-20T07:54:38.544Z,42.70
2022-10-20T07:57:06.577Z,99.90
2022-10-20T07:59:35.944Z,70.40
2022-10-20T08:02:04.079Z,64.50
2022-10-20T08:04:32.127Z,1.00
2022-10-20T08:07:01.378Z,1.00
2022-10-20T08:09:29.657Z,99.90
2022-10-20T08:11:57.741Z,99.90
2022-10-20T08:14:27.669Z,99.90
2022-10-20T08:17:02.063Z,99.90
2022-10-20T08:19:42.278Z,99.90
2022-10-20T08:22:10.428Z,64.00
2022-10-20T08:24:38.915Z,1.00
2022-10-20T08:27:06.934Z,1.00
2022-10-20T08:29:34.961Z,3.80
2022-10-20T08:32:04.632Z,1.00
2022-10-20T08:34:32.901Z,1.00
2022-10-20T08:37:01.192Z,1.00
2022-10-20T08:39:29.274Z,1.00
2022-10-20T08:42:09.432Z,99.90
2022-10-20T08:44:40.108Z,99.90
2022-10-20T08:47:24.891Z,99.90
2022-10-20T08:49:55.205Z,99.90
2022-10-20T08:52:25.335Z,99.90
2022-10-20T08:54:55.700Z,99.90
2022-10-20T08:57:25.955Z,99.90
2022-10-20T08:59:57.414Z,99.90
2022-10-20T09:02:27.715Z,99.90
2022-10-20T09:04:59.618Z,99.90
2022-10-20T09:07:30.820Z,99.90
2022-10-20T09:10:07.411Z,99.90
2022-10-20T09:12:36.733Z,99.90
2022-10-20T09:15:05.244Z,99.90
2022-10-20T09:17:36.503Z,99.90
2022-10-20T09:20:10.196Z,99.90
2022-10-20T09:22:40.810Z,99.90
2022-10-20T09:25:16.475Z,99.90
2022-10-20T09:27:45.273Z,99.90
2022-10-20T09:30:21.534Z,90.80
2022-10-20T09:32:51.225Z,77.40
2022-10-20T09:35:22.737Z,72.90
2022-10-20T09:37:57.609Z,99.90
2022-10-20T09:40:27.157Z,99.90
2022-10-20T09:42:57.961Z,99.90
2022-10-20T09:45:29.552Z,99.90
2022-10-20T09:48:03.650Z,99.90
2022-10-20T09:50:34.624Z,99.90
2022-10-20T09:53:05.912Z,99.90
2022-10-20T09:55:38.246Z,39.30
2022-10-20T09:58:07.439Z,46.80
2022-10-20T10:00:38.520Z,98.30
2022-10-20T10:03:26.103Z,1.00
2022-10-20T10:05:55.658Z,1.00
2022-10-20T10:08:26.624Z,1.00
2022-10-20T10:11:02.963Z,1.00
2022-10-20T10:13:33.188Z,1.00
2022-10-20T10:16:04.327Z,1.00
2022-10-20T10:18:35.368Z,1.00
2022-10-20T10:21:06.907Z,1.00
2022-10-20T10:23:41.116Z,26.30
2022-10-20T10:26:45.333Z,56.80
2022-10-20T10:29:21.540Z,86.90
2022-10-20T10:31:57.011Z,99.90
2022-10-20T10:34:38.498Z,99.90
2022-10-20T10:37:06.758Z,99.90
2022-10-20T10:39:37.437Z,99.90
2022-10-20T10:42:26.909Z,99.90
2022-10-20T10:45:03.888Z,99.90
2022-10-20T10:47:48.046Z,99.90
2022-10-20T10:50:35.404Z,1.00
2022-10-20T10:53:31.355Z,1.00
2022-10-20T10:58:47.813Z,99.90
2022-10-20T11:01:29.828Z,99.90
2022-10-20T11:04:19.116Z,99.90
2022-10-20T11:06:58.023Z,1.00
2022-10-20T11:09:35.775Z,1.00
2022-10-20T11:12:22.791Z,99.90
2022-10-20T11:15:04.760Z,19.40
2022-10-20T11:17:47.787Z,99.90
2022-10-20T11:20:26.712Z,1.00
2022-10-20T11:23:22.640Z,1.00
2022-10-20T11:25:59.146Z,1.00
2022-10-20T11:28:32.804Z,1.00
2022-10-20T11:31:01.467Z,1.00
2022-10-20T11:33:40.698Z,99.90
2022-10-20T11:36:16.337Z,89.90
2022-10-20T11:38:50.413Z,99.90
2022-10-20T11:41:24.968Z,1.00
2022-10-20T11:43:59.441Z,1.00
2022-10-20T11:46:35.669Z,99.90
2022-10-20T11:49:07.611Z,99.90
2022-10-20T11:52:08.953Z,1.00
2022-10-20T11:55:04.724Z,99.90
2022-10-20T11:57:46.909Z,21.00
2022-10-20T12:00:45.286Z,99.90
2022-10-20T12:03:45.757Z,1.00
2022-10-20T12:06:58.378Z,99.90
2022-10-20T12:09:57.016Z,99.90
2022-10-20T12:12:31.770Z,99.90
2022-10-20T12:15:02.007Z,99.90
2022-10-20T12:17:35.991Z,99.90
2022-10-20T12:20:41.673Z,99.90
2022-10-20T12:23:49.317Z,99.90
2022-10-20T12:26:43.909Z,99.90
2022-10-20T12:29:50.987Z,99.90
2022-10-20T12:32:53.493Z,99.90
2022-10-20T12:36:03.479Z,99.90
2022-10-20T12:38:32.534Z,1.00
2022-10-20T12:41:02.328Z,1.00
2022-10-20T12:43:36.435Z,1.00
2022-10-20T12:46:13.528Z,1.00
2022-10-20T12:48:48.895Z,16.80
2022-10-20T12:51:34.559Z,6.30
2022-10-20T12:54:07.498Z,63.70
2022-10-20T12:56:40.129Z,1.00
2022-10-20T12:59:40.175Z,17.10
2022-10-20T13:02:46.076Z,48.90
2022-10-20T13:05:49.318Z,99.90
2022-10-20T13:08:29.374Z,98.00
2022-10-20T13:10:58.346Z,98.10
2022-10-20T13:13:45.074Z,89.50
2022-10-20T13:16:20.257Z,54.90
2022-10-20T13:18:51.543Z,1.00
2022-10-20T13:21:29.985Z,1.00
2022-10-20T13:24:07.571Z,74.50
2022-10-20T13:26:40.217Z,99.90
2022-10-20T13:29:15.284Z,99.90
2022-10-20T13:31:51.735Z,99.90
2022-10-20T13:34:28.001Z,99.90
2022-10-20T13:37:22.601Z,99.90
2022-10-20T13:40:01.813Z,99.90
2022-10-20T13:42:41.053Z,99.90
2022-10-20T13:45:18.806Z,99.90
2022-10-20T13:48:10.181Z,1.00
2022-10-20T13:50:41.281Z,1.00
2022-10-20T13:53:20.699Z,1.00
2022-10-20T13:56:02.983Z,1.00
2022-10-20T13:58:31.089Z,27.40
2022-10-20T14:01:04.003Z,99.10
2022-10-20T14:03:43.519Z,88.20
2022-10-20T14:06:30.536Z,99.90
2022-10-20T14:09:00.521Z,99.90
2022-10-20T14:11:32.774Z,99.90
2022-10-20T14:14:02.281Z,99.90
2022-10-20T14:16:32.830Z,24.20
2022-10-20T14:19:03.456Z,1.00
2022-10-20T14:21:39.871Z,1.00
2022-10-20T14:24:12.691Z,1.00
2022-10-20T14:26:44.000Z,1.00
2022-10-20T14:29:15.409Z,1.00
2022-10-20T14:31:43.975Z,1.00
2022-10-20T14:34:25.674Z,1.00
2022-10-20T14:36:55.002Z,1.00
2022-10-20T14:39:33.982Z,1.00
2022-10-20T14:42:04.986Z,1.00
2022-10-20T14:44:33.343Z,1.00
2022-10-20T14:47:05.978Z,1.00
2022-10-20T14:49:39.076Z,17.70
2022-10-20T14:52:21.800Z,34.80
2022-10-20T14:54:51.571Z,94.00
2022-10-20T14:57:43.133Z,99.90
2022-10-20T15:00:32.937Z,99.90
2022-10-20T15:03:06.539Z,99.90
2022-10-20T15:05:39.844Z,99.90
2022-10-20T15:08:26.985Z,99.90
2022-10-20T15:10:55.385Z,99.90
2022-10-20T15:13:28.379Z,99.90
2022-10-20T15:15:57.849Z,99.90
2022-10-20T15:18:26.209Z,99.90
2022-10-20T15:20:56.720Z,99.90
2022-10-20T15:23:26.448Z,99.90
2022-10-20T15:25:57.278Z,99.90
2022-10-20T15:28:36.566Z,99.90
2022-10-20T15:31:06.851Z,99.90
2022-10-20T15:33:34.882Z,99.90
2022-10-20T15:36:04.411Z,99.90
2022-10-20T15:38:32.462Z,99.90
2022-10-20T15:41:02.610Z,99.90
2022-10-20T15:43:30.631Z,99.90
2022-10-20T15:45:58.913Z,99.90
2022-10-20T15:48:27.008Z,99.90
2022-10-20T15:50:55.670Z,1.00
2022-10-20T15:53:25.046Z,1.00
2022-10-20T15:55:53.012Z,1.00
2022-10-20T15:58:21.338Z,1.00
2022-10-20T16:00:49.516Z,1.00
2022-10-20T16:03:19.297Z,1.00
2022-10-20T16:05:48.064Z,1.00
2022-10-20T16:08:16.214Z,1.00
2022-10-20T16:10:45.667Z,1.00
2022-10-20T16:13:15.688Z,1.00
2022-10-20T16:15:43.690Z,1.00
2022-10-20T16:18:12.171Z,1.00
2022-10-20T16:20:40.183Z,1.00
2022-10-20T16:23:08.455Z,1.00
2022-10-20T16:25:36.899Z,1.00
2022-10-20T16:28:06.435Z,1.00
2022-10-20T16:30:34.778Z,1.00
2022-10-20T16:33:02.896Z,1.00
2022-10-20T16:35:30.885Z,1.00
2022-10-20T16:38:01.272Z,1.00
2022-10-20T16:40:29.287Z,1.00
2022-10-20T16:42:57.280Z,18.40
2022-10-20T16:45:26.660Z,25.00
2022-10-20T16:47:54.655Z,38.30
2022-10-20T16:50:22.737Z,58.30
2022-10-20T16:52:50.725Z,83.10
2022-10-20T16:55:19.137Z,90.90
2022-10-20T16:57:47.188Z,92.70
2022-10-20T17:00:19.503Z,99.90
2022-10-20T17:02:49.141Z,99.90
2022-10-20T17:05:19.682Z,99.90
2022-10-20T17:07:47.759Z,99.90
2022-10-20T17:10:15.851Z,99.90
2022-10-20T17:12:43.982Z,99.90
2022-10-20T17:15:12.454Z,99.90
2022-10-20T17:17:40.555Z,99.90
2022-10-20T17:20:11.347Z,99.90
2022-10-20T17:22:39.689Z,99.90
2022-10-20T17:25:09.119Z,99.90
2022-10-20T17:27:37.137Z,99.90
2022-10-20T17:30:05.840Z,99.90
2022-10-20T17:32:34.347Z,99.90
2022-10-20T17:35:03.453Z,99.90
2022-10-20T17:37:33.358Z,99.90
2022-10-20T17:40:01.367Z,99.90
2022-10-20T17:42:29.354Z,99.90
2022-10-20T17:44:59.723Z,99.90
2022-10-20T17:47:27.755Z,99.90
2022-10-20T17:49:55.806Z,99.90
2022-10-20T17:52:25.404Z,99.90
2022-10-20T17:54:54.761Z,99.90
2022-10-20T17:57:22.806Z,99.90
2022-10-20T17:59:53.969Z,99.90
2022-10-20T18:02:24.643Z,99.90
2022-10-20T18:04:52.881Z,99.90
2022-10-20T18:07:20.898Z,99.90
2022-10-20T18:09:50.824Z,99.90
2022-10-20T18:12:20.410Z,99.90
2022-10-20T18:14:48.459Z,99.90
2022-10-20T18:17:16.579Z,99.90
2022-10-20T18:19:44.719Z,99.90
2022-10-20T18:22:12.732Z,99.90
2022-10-20T18:24:40.966Z,99.90
2022-10-20T18:27:10.248Z,1.00
2022-10-20T18:29:40.073Z,1.00
2022-10-20T18:32:08.122Z,1.00
2022-10-20T18:34:38.498Z,1.00
2022-10-20T18:37:06.533Z,1.00
2022-10-20T18:39:34.567Z,1.00
2022-10-20T18:42:02.628Z,1.00
2022-10-20T18:44:30.863Z,1.00
2022-10-20T18:47:01.918Z,1.00
2022-10-20T18:49:29.945Z,1.00
2022-10-20T18:51:57.998Z,1.00
2022-10-20T18:54:26.055Z,1.00
2022-10-20T18:56:54.359Z,1.00
2022-10-20T18:59:22.955Z,1.00
2022-10-20T19:01:51.038Z,1.00
2022-10-20T19:04:20.476Z,1.00
2022-10-20T19:06:49.243Z,1.00
2022-10-20T19:09:19.200Z,1.00
2022-10-20T19:14:22.160Z,1.00
2022-10-20T19:16:53.321Z,1.00
2022-10-20T19:19:26.187Z,1.00
2022-10-20T19:21:55.674Z,1.00
2022-10-20T19:24:27.546Z,1.00
2022-10-20T19:29:52.940Z,1.00
2022-10-20T19:32:21.061Z,1.00
2022-10-20T19:34:50.557Z,1.00
2022-10-20T19:37:18.842Z,1.00
2022-10-20T19:39:47.015Z,1.00
2022-10-20T19:42:18.023Z,1.00
2022-10-20T19:44:46.542Z,1.00
2022-10-20T19:47:14.575Z,1.00
2022-10-20T19:49:42.712Z,1.00
2022-10-20T19:52:13.259Z,1.00
2022-10-20T19:54:41.327Z,1.00
2022-10-20T19:57:09.447Z,1.00
2022-10-20T19:59:37.530Z,1.00
2022-10-20T20:02:06.807Z,1.00
2022-10-20T20:04:35.101Z,1.00
2022-10-20T20:07:03.286Z,1.00
2022-10-20T20:09:32.847Z,1.00
2022-10-20T20:12:00.902Z,1.00
2022-10-20T20:14:29.019Z,1.00
2022-10-20T20:16:57.250Z,1.00
2022-10-20T20:19:25.322Z,1.00
2022-10-20T20:21:53.393Z,1.00
2022-10-20T20:24:21.414Z,1.00
2022-10-20T20:26:50.856Z,1.00
2022-10-20T20:29:18.904Z,1.00
2022-10-20T20:31:48.040Z,1.00
2022-10-20T20:34:19.376Z,1.00
2022-10-20T20:36:47.430Z,1.00
2022-10-20T20:39:15.477Z,1.00
2022-10-20T20:41:43.948Z,1.00
2022-10-20T20:44:13.489Z,1.00
2022-10-20T20:46:42.151Z,1.00
2022-10-20T20:49:10.203Z,1.00
2022-10-20T20:51:38.272Z,2.40
2022-10-20T20:54:06.333Z,4.30
2022-10-20T20:56:34.630Z,6.90
2022-10-20T20:59:03.006Z,6.40
2022-10-20T21:01:33.120Z,6.30
2022-10-20T21:04:03.106Z,7.50
2022-10-20T21:07:00.122Z,8.70
2022-10-20T21:09:19.760Z,9.20
2022-10-20T21:11:49.046Z,12.40
2022-10-20T21:14:17.148Z,14.10
2022-10-20T21:16:46.849Z,14.00
2022-10-20T21:19:15.293Z,16.50
2022-10-20T21:21:50.115Z,20.70
2022-10-20T21:24:19.036Z,24.40
2022-10-20T21:26:48.626Z,26.80
2022-10-20T21:29:17.144Z,29.90
2022-10-20T21:31:46.597Z,32.70
2022-10-20T21:34:14.895Z,33.80
2022-10-20T21:36:42.912Z,34.30
2022-10-20T21:39:15.738Z,34.80
2022-10-20T21:41:45.220Z,38.40
2022-10-20T21:44:14.818Z,39.50
2022-10-20T21:46:49.179Z,38.00
2022-10-20T21:49:20.186Z,36.30
2022-10-20T21:51:49.816Z,34.20
2022-10-20T21:56:56.614Z,34.30
2022-10-20T21:59:26.570Z,36.30
2022-10-20T22:01:57.498Z,36.50
2022-10-20T22:04:28.632Z,38.00
2022-10-20T22:07:00.082Z,39.40
2022-10-20T22:09:28.167Z,40.50
2022-10-20T22:11:59.569Z,43.40
2022-10-20T22:14:28.043Z,44.10
2022-10-20T22:16:56.742Z,43.00
2022-10-20T22:19:26.725Z,41.90
2022-10-20T22:24:30.478Z,46.80
2022-10-20T22:26:59.006Z,48.30
2022-10-20T22:29:27.172Z,48.80
2022-10-20T22:31:55.534Z,49.60
2022-10-20T22:34:23.679Z,51.60
2022-10-20T22:36:53.098Z,51.30
2022-10-20T22:39:21.292Z,51.30
2022-10-20T22:41:49.327Z,54.00
2022-10-20T22:44:17.338Z,55.80
2022-10-20T22:46:45.363Z,56.90
2022-10-20T22:49:14.259Z,57.50
2022-10-20T22:51:42.697Z,55.60
2022-10-20T22:54:12.157Z,53.80
2022-10-20T22:56:40.237Z,53.50
2022-10-20T22:59:08.292Z,53.30
2022-10-20T23:01:37.769Z,54.00
2022-10-20T23:04:05.993Z,55.60
2022-10-20T23:06:34.109Z,58.80
2022-10-20T23:09:02.249Z,59.90
2022-10-20T23:11:31.825Z,60.90
2022-10-20T23:13:59.822Z,63.80
2022-10-20T23:16:27.859Z,62.80
2022-10-20T23:18:56.048Z,62.50
2022-10-20T23:21:24.122Z,64.00
2022-10-20T23:23:52.141Z,65.60
2022-10-20T23:26:20.201Z,65.60
2022-10-20T23:28:49.691Z,65.30
2022-10-20T23:31:20.094Z,65.50
2022-10-20T23:33:50.381Z,65.10
2022-10-20T23:36:20.986Z,66.10
2022-10-20T23:38:49.290Z,66.50
2022-10-20T23:41:17.441Z,68.50
2022-10-20T23:43:45.564Z,69.00
2022-10-20T23:46:15.105Z,70.70
2022-10-20T23:48:43.610Z,71.10
2022-10-20T23:51:11.637Z,71.00
2022-10-20T23:53:39.734Z,69.10
2022-10-20T23:56:08.533Z,68.20
2022-10-20T23:58:37.206Z,68.90
